Time;durP1;ratioP1;P1;durP2;ratioP2;P2;SDS_P1;SDS_P2;PMS_P1;PMS_P2;Temp;Humidity;BMP_temperature;BMP_pressure;BME280_temperature;BME280_humidity;BME280_pressure;Samples;Min_cycle;Max_cycle;Signal;HPM_P1;HPM_P2
2021/12/03 00:00:06;;;;;;;;;8.50;6.75;;;;;10.36;32.63;97434.88;6140105;28;97039;-65
2021/12/03 00:03:11;;;;;;;;;8.33;7.00;;;;;10.29;32.61;97422.69;6129299;28;97590;-66
2021/12/03 00:06:16;;;;;;;;;8.00;7.50;;;;;10.29;32.17;97450.44;6122293;28;99627;-66
2021/12/03 00:09:21;;;;;;;;;7.20;6.60;;;;;10.29;32.61;97449.63;6122006;28;97307;-66
2021/12/03 00:12:25;;;;;;;;;8.25;7.00;;;;;10.23;32.27;97451.44;6114139;28;98676;-66
2021/12/03 00:15:28;;;;;;;;;8.00;7.00;;;;;10.13;32.20;97453.19;6140249;28;97190;-66
2021/12/03 00:18:32;;;;;;;;;8.40;7.00;;;;;10.18;32.24;97459.47;6131231;28;96690;-66
2021/12/03 00:21:37;;;;;;;;;6.80;6.20;;;;;10.02;32.23;97471.09;6133006;28;97151;-67
2021/12/03 00:24:41;;;;;;;;;7.00;6.00;;;;;9.99;32.08;97477.81;6112812;28;97282;-66
2021/12/03 00:27:44;;;;;;;;;6.00;6.00;;;;;9.97;32.15;97489.91;6104787;28;99674;-65
2021/12/03 00:30:48;;;;;;;;;5.00;5.00;;;;;9.90;32.37;97481.22;6136738;28;96628;-66
2021/12/03 00:33:51;;;;;;;;;7.00;5.00;;;;;9.88;32.06;97491.41;6135199;28;97380;-66
2021/12/03 00:36:56;;;;;;;;;6.00;6.00;;;;;9.89;32.37;97495.72;6122098;28;97552;-66
2021/12/03 00:40:00;;;;;;;;;6.80;6.00;;;;;9.81;32.26;97488.09;6131832;28;96983;-66
2021/12/03 00:43:04;;;;;;;;;6.00;4.00;;;;;9.82;32.14;97490.53;6107422;28;97037;-66
2021/12/03 00:46:09;;;;;;;;;4.00;3.75;;;;;9.79;32.35;97501.00;6138662;28;97074;-65
2021/12/03 00:49:13;;;;;;;;;5.00;4.00;;;;;9.75;32.30;97506.06;6137281;28;97430;-65
2021/12/03 00:52:18;;;;;;;;;5.60;5.00;;;;;9.69;31.95;97517.00;6113472;28;97390;-65
2021/12/03 00:55:24;;;;;;;;;4.00;4.00;;;;;9.76;32.00;97520.34;6141050;28;96568;-66
2021/12/03 00:58:27;;;;;;;;;6.40;5.00;;;;;9.73;31.87;97518.94;6102502;28;96985;-65
2021/12/03 01:01:30;;;;;;;;;5.00;5.00;;;;;9.78;32.25;97516.31;6128104;28;98580;-66
2021/12/03 01:04:34;;;;;;;;;6.80;5.20;;;;;9.67;32.28;97513.75;6131458;28;97331;-65
2021/12/03 01:07:39;;;;;;;;;7.00;6.00;;;;;9.63;32.39;97526.88;6115913;28;99434;-66
2021/12/03 01:10:43;;;;;;;;;7.00;7.00;;;;;9.38;32.85;97531.94;6136978;28;98082;-66
2021/12/03 01:13:47;;;;;;;;;5.60;5.60;;;;;9.47;32.95;97536.63;6113293;28;99683;-66
2021/12/03 01:16:51;;;;;;;;;8.60;8.00;;;;;9.44;33.16;97534.44;6136267;28;96777;-65
2021/12/03 01:19:54;;;;;;;;;6.00;5.00;;;;;9.40;32.96;97548.63;6119393;28;97773;-65
2021/12/03 01:23:01;;;;;;;;;6.20;6.20;;;;;9.30;33.04;97541.22;6108889;28;97539;-65
2021/12/03 01:26:05;;;;;;;;;5.00;4.40;;;;;9.21;33.33;97542.69;6119495;28;96529;-65
2021/12/03 01:29:08;;;;;;;;;5.00;5.00;;;;;9.05;33.44;97540.81;6123767;28;96873;-65
2021/12/03 01:32:12;;;;;;;;;7.60;7.00;;;;;9.00;33.75;97519.22;6127517;28;97066;-66
2021/12/03 01:35:15;;;;;;;;;6.00;6.00;;;;;9.16;33.77;97536.41;6122302;28;97444;-65
2021/12/03 01:38:20;;;;;;;;;7.80;6.80;;;;;9.16;34.25;97534.53;6134659;28;97458;-65
2021/12/03 01:41:27;;;;;;;;;5.00;4.80;;;;;9.18;34.09;97537.81;6123388;28;97595;-66
2021/12/03 01:44:30;;;;;;;;;7.00;6.00;;;;;9.12;34.30;97534.22;6139442;28;98181;-66
2021/12/03 01:47:37;;;;;;;;;6.00;5.00;;;;;9.16;34.89;97545.31;6143891;28;97549;-66
2021/12/03 01:50:44;;;;;;;;;6.00;5.50;;;;;9.07;34.55;97547.59;6163444;28;96659;-66
2021/12/03 01:53:49;;;;;;;;;6.60;5.00;;;;;9.13;34.52;97545.81;6167592;28;97964;-66
2021/12/03 01:56:53;;;;;;;;;5.00;5.00;;;;;9.08;34.57;97540.34;6165405;28;97855;-66
2021/12/03 01:59:56;;;;;;;;;4.20;3.20;;;;;9.01;34.76;97542.38;6166567;28;96689;-67
2021/12/03 02:03:00;;;;;;;;;6.00;6.00;;;;;9.13;34.44;97578.06;6156788;28;96777;-66
2021/12/03 02:06:05;;;;;;;;;4.60;4.60;;;;;9.13;34.82;97583.44;6147307;28;96737;-66
2021/12/03 02:09:10;;;;;;;;;6.00;6.00;;;;;9.03;34.79;97578.72;6132221;28;96630;-66
2021/12/03 02:12:15;;;;;;;;;6.00;6.00;;;;;9.20;34.65;97602.06;6118616;28;98831;-66
2021/12/03 02:15:19;;;;;;;;;4.40;4.40;;;;;9.12;34.77;97598.75;6146425;28;99587;-66
2021/12/03 02:18:23;;;;;;;;;6.00;5.00;;;;;9.02;35.05;97587.81;6143828;28;97580;-66
2021/12/03 02:21:29;;;;;;;;;7.00;5.00;;;;;9.14;34.93;97611.94;6159911;28;97576;-66
2021/12/03 02:24:33;;;;;;;;;5.00;5.00;;;;;9.04;35.43;97615.25;6161627;28;97543;-66
2021/12/03 02:27:36;;;;;;;;;4.60;4.60;;;;;9.01;35.14;97621.13;6165941;28;97455;-67
2021/12/03 02:30:40;;;;;;;;;4.60;4.00;;;;;9.01;35.28;97623.00;6164772;28;96603;-68
2021/12/03 02:33:44;;;;;;;;;5.00;4.00;;;;;8.94;35.08;97633.91;6155106;28;97944;-66
2021/12/03 02:36:49;;;;;;;;;6.60;5.40;;;;;8.96;35.10;97629.09;6159768;28;96855;-66
2021/12/03 02:39:52;;;;;;;;;5.00;5.00;;;;;8.97;35.14;97643.38;6160631;28;96438;-66
2021/12/03 02:42:56;;;;;;;;;6.00;5.00;;;;;9.01;35.13;97639.13;6144959;28;96985;-66
2021/12/03 02:45:59;;;;;;;;;6.20;5.20;;;;;8.99;35.31;97646.66;6135543;28;97495;-66
2021/12/03 02:49:03;;;;;;;;;6.00;4.60;;;;;8.92;35.03;97637.91;6122378;28;97420;-66
2021/12/03 02:52:10;;;;;;;;;6.00;4.00;;;;;8.84;35.20;97649.88;6142196;28;97484;-66
2021/12/03 02:55:14;;;;;;;;;4.00;4.00;;;;;8.83;35.26;97650.09;6121609;28;97511;-66
2021/12/03 02:58:18;;;;;;;;;4.80;4.00;;;;;8.66;35.09;97652.72;6124940;28;97546;-66
2021/12/03 03:01:22;;;;;;;;;4.00;4.00;;;;;8.68;34.97;97646.06;6141266;28;96540;-66
2021/12/03 03:04:26;;;;;;;;;5.00;3.25;;;;;8.65;35.17;97643.03;6116563;28;96620;-66
2021/12/03 03:07:31;;;;;;;;;3.00;3.00;;;;;8.71;34.88;97647.44;6123872;28;96611;-66
2021/12/03 03:10:40;;;;;;;;;4.00;4.00;;;;;8.75;35.10;97653.97;6137812;28;96556;-66
2021/12/03 03:13:44;;;;;;;;;4.00;3.20;;;;;8.68;35.27;97661.38;6132310;28;98593;-67
2021/12/03 03:16:48;;;;;;;;;5.00;5.00;;;;;8.67;35.27;97675.84;6144003;28;97293;-65
2021/12/03 03:19:56;;;;;;;;;3.60;3.60;;;;;8.67;35.34;97682.03;6141428;28;97489;-66
2021/12/03 03:23:01;;;;;;;;;3.25;3.25;;;;;8.61;35.34;97685.69;6129227;28;97982;-66
2021/12/03 03:26:05;;;;;;;;;5.00;5.00;;;;;8.37;35.38;97651.88;6123966;28;97770;-66
2021/12/03 03:29:10;;;;;;;;;5.00;5.00;;;;;8.35;35.65;97669.31;6116070;28;98431;-66
2021/12/03 03:32:13;;;;;;;;;5.50;5.00;;;;;8.43;35.91;97695.78;6131389;28;98173;-68
2021/12/03 03:35:16;;;;;;;;;4.00;3.00;;;;;8.33;35.89;97695.56;6110670;28;98522;-66
2021/12/03 03:38:21;;;;;;;;;3.25;3.25;;;;;8.35;35.94;97690.78;6123274;28;96554;-67
2021/12/03 03:41:28;;;;;;;;;5.00;4.00;;;;;8.33;36.23;97708.97;6103985;28;96633;-67
2021/12/03 03:44:32;;;;;;;;;7.00;6.00;;;;;8.43;36.23;97711.88;6139730;28;100646;-66
2021/12/03 03:47:36;;;;;;;;;5.00;5.00;;;;;8.40;36.18;97710.50;6153875;28;96442;-66
2021/12/03 03:50:40;;;;;;;;;6.40;6.00;;;;;8.33;36.34;97701.75;6144081;28;97025;-66
2021/12/03 03:53:45;;;;;;;;;6.00;6.00;;;;;8.34;36.37;97714.13;6135565;28;97455;-66
2021/12/03 03:56:48;;;;;;;;;6.00;5.00;;;;;8.26;36.60;97723.31;6163309;28;96471;-66
2021/12/03 03:59:52;;;;;;;;;6.00;5.00;;;;;8.18;36.77;97728.22;6149541;28;98426;-66
2021/12/03 04:02:56;;;;;;;;;6.00;6.00;;;;;8.20;36.74;97734.19;6163939;28;96746;-66
2021/12/03 04:05:59;;;;;;;;;6.60;6.00;;;;;8.21;37.11;97744.69;6149192;28;98899;-67
2021/12/03 04:09:04;;;;;;;;;6.20;5.00;;;;;8.15;37.08;97747.50;6136647;28;97974;-65
2021/12/03 04:12:26;;;;;;;;;5.60;5.00;;;;;8.17;37.11;97756.13;6151771;28;97680;-66
2021/12/03 04:15:48;;;;;;;;;5.00;4.00;;;;;8.19;37.14;97759.41;6160915;28;97264;-66
2021/12/03 04:19:10;;;;;;;;;5.00;5.00;;;;;8.14;37.62;97767.34;6141713;28;97008;-67
2021/12/03 04:22:32;;;;;;;;;5.00;5.00;;;;;7.97;37.54;97761.00;6147898;28;97001;-66
2021/12/03 04:25:56;;;;;;;;;5.40;5.00;;;;;8.01;37.58;97772.94;6141678;28;96704;-66
2021/12/03 04:29:18;;;;;;;;;4.40;4.40;;;;;7.95;37.71;97779.22;6162600;28;96617;-66
2021/12/03 04:32:40;;;;;;;;;5.50;4.00;;;;;7.94;38.03;97793.69;6138072;28;96887;-67
2021/12/03 04:36:02;;;;;;;;;5.00;4.80;;;;;7.99;37.84;97794.63;6126921;28;96466;-66
2021/12/03 04:39:23;;;;;;;;;5.00;5.00;;;;;7.92;38.02;97793.91;6164957;28;97663;-66
2021/12/03 04:42:48;;;;;;;;;7.00;7.00;;;;;7.97;38.18;97790.53;6145099;28;96672;-66
2021/12/03 04:46:10;;;;;;;;;6.75;6.00;;;;;7.80;38.52;97799.28;6138485;28;97117;-66
2021/12/03 04:49:32;;;;;;;;;6.00;4.50;;;;;7.72;38.91;97813.00;6136292;28;97125;-65
2021/12/03 04:52:55;;;;;;;;;6.40;5.60;;;;;7.67;39.10;97807.50;6113852;28;96677;-66
2021/12/03 04:56:17;;;;;;;;;6.25;5.00;;;;;7.64;39.14;97805.28;6139957;28;96417;-65
2021/12/03 04:59:41;;;;;;;;;5.60;5.00;;;;;7.69;39.11;97791.19;6138637;28;96386;-65
2021/12/03 05:03:03;;;;;;;;;5.00;3.40;;;;;7.72;39.12;97815.69;6110805;28;97378;-65
2021/12/03 05:06:41;;;;;;;;;4.50;3.50;;;;;7.70;39.27;97823.16;6117685;28;96625;-67
2021/12/03 05:10:04;;;;;;;;;4.60;4.00;;;;;7.42;39.17;97800.69;6120191;28;97035;-65
2021/12/03 05:13:28;;;;;;;;;5.00;4.00;;;;;7.63;39.18;97833.16;6123127;28;97064;-65
2021/12/03 05:16:52;;;;;;;;;3.50;3.50;;;;;7.64;38.98;97842.84;6107408;28;96422;-65
2021/12/03 05:20:14;;;;;;;;;2.60;2.00;;;;;7.66;38.76;97848.81;6136064;28;97024;-65
2021/12/03 05:23:39;;;;;;;;;3.40;3.00;;;;;7.66;38.72;97859.53;6129879;28;96958;-65
2021/12/03 05:27:01;;;;;;;;;3.00;3.00;;;;;7.74;38.41;97874.47;6136242;28;97213;-67
2021/12/03 05:30:23;;;;;;;;;4.00;3.00;;;;;7.79;38.26;97856.66;6108893;28;97099;-66
2021/12/03 05:33:47;;;;;;;;;2.80;2.80;;;;;7.71;38.01;97851.63;6129841;28;96701;-66
2021/12/03 05:37:09;;;;;;;;;3.00;3.00;;;;;7.72;38.10;97849.78;6141004;28;96382;-66
2021/12/03 05:40:32;;;;;;;;;4.00;3.00;;;;;7.76;37.98;97859.81;6143537;28;96371;-67
2021/12/03 05:43:54;;;;;;;;;3.40;2.00;;;;;7.74;38.27;97869.94;6129224;28;96964;-66
2021/12/03 05:47:16;;;;;;;;;3.80;3.00;;;;;7.58;38.54;97883.97;6141507;28;96896;-66
2021/12/03 05:50:40;;;;;;;;;4.00;3.00;;;;;7.47;38.77;97873.22;6132924;28;97598;-67
2021/12/03 05:54:06;;;;;;;;;5.00;4.00;;;;;7.63;39.05;97894.84;6133220;28;97140;-67
2021/12/03 05:57:28;;;;;;;;;4.00;4.00;;;;;7.73;38.87;97892.44;6140415;28;96788;-66
2021/12/03 06:00:50;;;;;;;;;3.20;3.00;;;;;7.85;38.74;97897.84;6136253;28;96441;-66
2021/12/03 06:04:11;;;;;;;;;4.00;3.50;;;;;7.89;38.78;97898.22;6125311;28;97167;-66
2021/12/03 06:07:35;;;;;;;;;4.00;4.00;;;;;7.86;38.77;97904.88;6116095;28;97359;-66
2021/12/03 06:10:57;;;;;;;;;5.00;5.00;;;;;7.72;39.00;97906.88;6137943;28;97434;-66
2021/12/03 06:14:19;;;;;;;;;5.40;4.40;;;;;7.80;39.04;97916.50;6142316;28;96510;-69
2021/12/03 06:17:41;;;;;;;;;7.00;6.00;;;;;7.79;38.82;97915.69;6123214;28;96868;-65
2021/12/03 06:21:06;;;;;;;;;6.00;6.00;;;;;7.91;39.20;97933.69;6136629;28;99354;-66
2021/12/03 06:24:31;;;;;;;;;7.40;6.40;;;;;7.91;39.11;97939.88;6123762;28;96619;-65
2021/12/03 06:27:57;;;;;;;;;7.00;6.00;;;;;7.97;39.35;97941.63;6130617;28;97233;-65
2021/12/03 06:31:19;;;;;;;;;5.00;5.00;;;;;7.96;39.31;97934.66;6134064;28;97412;-65
2021/12/03 06:34:41;;;;;;;;;6.00;6.00;;;;;7.93;39.23;97948.50;6144453;28;96866;-65
2021/12/03 06:38:03;;;;;;;;;7.00;6.00;;;;;7.91;39.38;97963.22;6123156;28;97018;-64
2021/12/03 06:41:26;;;;;;;;;6.00;5.80;;;;;7.96;39.37;97958.00;6132088;28;98286;-67
2021/12/03 06:44:48;;;;;;;;;7.00;7.00;;;;;7.96;39.50;97966.03;6156617;28;96709;-66
2021/12/03 06:48:11;;;;;;;;;6.00;5.00;;;;;7.95;39.52;97978.63;6165179;28;97234;-66
2021/12/03 06:51:40;;;;;;;;;6.00;5.00;;;;;7.85;39.56;97978.34;6133593;28;97170;-66
2021/12/03 06:55:05;;;;;;;;;7.00;7.00;;;;;7.79;39.79;97990.81;6146671;28;97846;-66
2021/12/03 06:58:29;;;;;;;;;7.00;5.00;;;;;7.81;39.75;97995.97;6157708;28;97246;-65
2021/12/03 07:01:52;;;;;;;;;7.00;5.80;;;;;7.84;39.78;98004.38;6157798;28;96733;-65
2021/12/03 07:05:14;;;;;;;;;6.00;5.00;;;;;7.77;40.08;98008.19;6157200;28;97294;-66
2021/12/03 07:08:36;;;;;;;;;6.00;5.80;;;;;7.64;40.06;98016.38;6161608;28;96577;-65
2021/12/03 07:11:58;;;;;;;;;4.75;4.75;;;;;7.67;40.25;98016.75;6139247;28;97156;-64
2021/12/03 07:15:22;;;;;;;;;7.50;6.00;;;;;7.70;40.41;98018.16;6144590;28;97126;-63
2021/12/03 07:18:44;;;;;;;;;6.80;6.80;;;;;7.69;40.34;98033.44;6144538;28;96641;-63
2021/12/03 07:22:06;;;;;;;;;7.00;6.00;;;;;7.67;40.45;98030.16;6156411;28;97166;-65
2021/12/03 07:25:28;;;;;;;;;6.00;6.00;;;;;7.81;40.07;98039.72;6161001;28;96527;-64
2021/12/03 07:28:50;;;;;;;;;8.00;7.75;;;;;9.59;37.18;98036.97;6164599;28;97082;-66
2021/12/03 07:32:13;;;;;;;;;6.60;6.00;;;;;11.25;34.34;98044.72;6153139;28;97054;-65
2021/12/03 07:35:35;;;;;;;;;7.00;7.00;;;;;12.77;32.10;98048.53;6137594;28;96639;-65
2021/12/03 07:38:57;;;;;;;;;9.00;7.00;;;;;14.23;29.72;98056.88;6163898;28;96701;-63
2021/12/03 07:42:19;;;;;;;;;8.00;7.00;;;;;15.23;27.83;98041.91;6162078;28;96980;-68
2021/12/03 07:45:41;;;;;;;;;9.00;8.00;;;;;16.63;26.20;98058.13;6135170;28;96888;-66
2021/12/03 07:49:06;;;;;;;;;9.00;8.40;;;;;17.58;25.01;98060.41;6139035;28;96752;-66
2021/12/03 07:52:33;;;;;;;;;8.80;7.00;;;;;18.45;23.49;98070.13;6116603;28;97413;-66
2021/12/03 07:55:56;;;;;;;;;10.00;9.00;;;;;18.86;23.16;98069.59;6136126;28;97153;-66
2021/12/03 07:59:18;;;;;;;;;10.25;9.25;;;;;18.64;23.31;98083.00;6118495;28;97164;-66
2021/12/03 08:02:40;;;;;;;;;10.00;9.00;;;;;19.12;22.80;98080.94;6133285;28;97390;-65
2021/12/03 08:06:08;;;;;;;;;12.00;10.00;;;;;19.59;22.18;98088.97;6115377;28;96453;-65
2021/12/03 08:09:30;;;;;;;;;9.00;9.00;;;;;20.07;21.60;98089.47;6135261;28;98032;-63
2021/12/03 08:12:53;;;;;;;;;11.50;10.50;;;;;20.26;20.98;98092.94;6110019;28;98669;-65
2021/12/03 08:16:14;;;;;;;;;14.00;11.00;;;;;20.49;20.80;98104.81;6139821;28;97096;-64
2021/12/03 08:19:18;;;;;;;;;11.40;10.40;;;;;20.67;20.71;98100.38;6139498;28;97679;-66
2021/12/03 08:22:22;;;;;;;;;11.00;10.00;;;;;21.04;20.16;98110.22;6134314;28;98815;-67
2021/12/03 08:25:26;;;;;;;;;12.00;10.00;;;;;21.34;20.42;98115.03;6136622;28;96835;-68
2021/12/03 08:28:31;;;;;;;;;12.75;10.75;;;;;20.80;20.38;98117.88;6137651;28;96818;-67
2021/12/03 08:31:35;;;;;;;;;14.00;11.50;;;;;19.73;21.50;98127.31;6112694;28;96839;-66
2021/12/03 08:34:38;;;;;;;;;11.20;11.00;;;;;18.27;22.81;98122.72;6117158;28;97461;-65
2021/12/03 08:37:46;;;;;;;;;12.00;10.60;;;;;16.89;24.68;98127.66;6138090;28;97351;-66
2021/12/03 08:40:50;;;;;;;;;13.40;11.00;;;;;15.72;25.91;98125.56;6116038;28;98173;-67
2021/12/03 08:43:53;;;;;;;;;10.00;10.00;;;;;14.57;26.89;98122.38;6115508;28;97456;-67
2021/12/03 08:47:02;;;;;;;;;10.60;9.20;;;;;13.86;28.02;98138.25;6136031;28;96770;-67
2021/12/03 08:50:11;;;;;;;;;10.00;10.00;;;;;13.21;29.21;98141.25;6136998;28;97073;-67
2021/12/03 08:54:47;;;;;;;;;11.00;10.00;;;;;12.53;30.46;98150.75;6128809;28;97398;-66
2021/12/03 08:56:43;;;;;;;;;10.00;10.00;;;;;11.90;31.82;98152.09;6131772;28;96856;-65
2021/12/03 08:59:47;;;;;;;;;11.00;10.40;;;;;11.58;32.13;98162.63;6136659;28;97484;-66
2021/12/03 09:02:51;;;;;;;;;10.00;9.00;;;;;11.25;32.78;98162.59;6107893;28;96746;-65
2021/12/03 09:05:54;;;;;;;;;11.80;9.00;;;;;10.93;33.48;98170.41;6118921;28;97164;-65
2021/12/03 09:08:59;;;;;;;;;10.60;10.00;;;;;10.54;34.17;98172.06;6122080;28;96655;-65
2021/12/03 09:12:03;;;;;;;;;10.00;9.00;;;;;10.31;34.72;98183.69;6130901;28;98475;-65
2021/12/03 09:15:10;;;;;;;;;9.00;9.00;;;;;10.03;34.39;98180.91;6144391;28;97609;-67
2021/12/03 09:18:27;;;;;;;;;10.00;7.60;;;;;9.47;34.65;98135.72;6146161;28;96696;-66
2021/12/03 09:21:50;;;;;;;;;5.60;5.20;;;;;9.74;33.77;98198.81;6133880;28;97627;-66
2021/12/03 09:24:55;;;;;;;;;4.00;3.00;;;;;9.60;33.18;98196.56;6120843;28;98355;-65
2021/12/03 09:27:59;;;;;;;;;6.00;5.00;;;;;9.49;33.32;98207.06;6141250;28;97487;-66
2021/12/03 09:31:03;;;;;;;;;5.00;5.00;;;;;9.51;33.67;98207.69;6136760;28;97150;-65
2021/12/03 09:34:09;;;;;;;;;5.00;4.50;;;;;9.40;34.19;98213.84;6117077;28;98678;-65
2021/12/03 09:37:12;;;;;;;;;8.60;7.60;;;;;9.30;34.46;98216.28;6141139;28;98086;-65
2021/12/03 09:40:21;;;;;;;;;4.60;4.00;;;;;9.04;35.02;98195.16;6138113;28;97892;-66
2021/12/03 09:43:25;;;;;;;;;5.00;5.00;;;;;9.09;35.34;98222.97;6130131;28;97050;-64
2021/12/03 09:46:30;;;;;;;;;5.00;5.00;;;;;8.84;35.16;98214.25;6113981;28;97755;-65
2021/12/03 09:49:35;;;;;;;;;6.60;6.60;;;;;8.85;35.44;98232.00;6140987;28;97491;-66
2021/12/03 09:52:44;;;;;;;;;6.00;5.00;;;;;8.68;35.18;98244.41;6136134;28;97816;-66
2021/12/03 09:55:51;;;;;;;;;7.00;7.00;;;;;8.56;35.95;98232.78;6136437;28;97232;-64
2021/12/03 10:02:27;;;;;;;;;7.00;6.80;;;;;8.59;35.77;98217.06;6134589;28;97562;-65
2021/12/03 10:12:36;;;;;;;;;6.00;6.00;;;;;8.41;36.35;98194.72;6134681;28;98941;-68
2021/12/03 10:15:53;;;;;;;;;5.00;4.00;;;;;8.65;36.33;98216.13;6140128;28;97129;-65
2021/12/03 10:18:58;;;;;;;;;5.20;5.00;;;;;8.58;36.51;98209.19;6139742;28;97537;-65
2021/12/03 10:22:21;;;;;;;;;5.00;5.00;;;;;8.48;36.72;98214.28;6114680;28;97454;-66
2021/12/03 10:35:51;;;;;;;;;6.00;5.20;;;;;9.10;34.70;98196.91;6116432;28;98488;-66
2021/12/03 10:39:16;;;;;;;;;6.00;5.00;;;;;9.86;33.50;98185.38;6120333;28;96622;-65
2021/12/03 10:42:31;;;;;;;;;5.00;5.00;;;;;10.15;32.51;98186.28;6127554;28;98620;-65
2021/12/03 10:45:44;;;;;;;;;7.00;6.40;;;;;10.36;32.14;98181.13;6138376;28;97466;-65
2021/12/03 10:48:56;;;;;;;;;5.50;5.00;;;;;11.33;31.22;98185.69;6122596;28;96674;-64
2021/12/03 10:52:11;;;;;;;;;6.00;6.00;;;;;11.68;30.32;98194.38;6133666;28;99199;-67
2021/12/03 11:13:19;;;;;;;;;8.00;7.00;;;;;13.58;27.96;98184.63;6064810;28;97313;-66
2021/12/03 12:19:25;;;;;;;;;7.60;7.60;;;;;17.10;20.35;98193.72;6135376;28;97213;-65
2021/12/03 12:41:00;;;;;;;;;9.00;8.00;;;;;16.32;21.52;98215.19;6134490;28;97506;-65
2021/12/03 13:08:16;;;;;;;;;7.00;6.50;;;;;14.42;23.05;98225.34;6099932;28;97922;-67
2021/12/03 13:29:18;;;;;;;;;8.00;8.00;;;;;14.01;23.40;98238.63;6095192;28;97538;-64
2021/12/03 13:57:07;;;;;;;;;7.80;7.40;;;;;12.06;25.85;98243.09;6117676;28;99551;-66
2021/12/03 14:00:20;;;;;;;;;9.60;9.00;;;;;12.12;26.18;98266.41;6140517;28;96660;-66
2021/12/03 14:41:33;;;;;;;;;10.00;9.00;;;;;9.57;29.75;98287.50;6111058;28;97371;-67
2021/12/03 14:45:03;;;;;;;;;12.60;9.00;;;;;9.48;30.00;98293.44;6127754;28;97057;-66
2021/12/03 14:54:55;;;;;;;;;9.40;8.00;;;;;9.05;30.28;98302.47;6121545;28;97668;-66
2021/12/03 14:58:01;;;;;;;;;8.80;7.80;;;;;8.91;30.41;98306.38;6126776;28;98121;-66
2021/12/03 15:01:10;;;;;;;;;10.00;10.00;;;;;8.85;30.53;98312.63;6134877;28;96713;-66
2021/12/03 15:04:43;;;;;;;;;11.00;9.20;;;;;8.75;30.45;98315.03;6114489;28;98420;-65
2021/12/03 15:07:50;;;;;;;;;12.00;10.40;;;;;8.61;30.64;98310.84;6136550;28;96773;-66
2021/12/03 15:25:07;;;;;;;;;12.40;10.60;;;;;8.26;30.83;98337.38;6048290;28;97466;-65
2021/12/03 15:28:45;;;;;;;;;14.00;12.00;;;;;8.21;31.29;98331.84;6069094;28;97340;-66
2021/12/03 15:32:08;;;;;;;;;12.20;10.20;;;;;8.18;30.56;98341.19;6053394;28;96642;-66
2021/12/03 15:35:15;;;;;;;;;13.60;12.60;;;;;8.20;30.65;98338.28;6085019;28;99527;-65
2021/12/03 15:38:35;;;;;;;;;17.00;15.00;;;;;8.05;30.48;98321.69;6086757;28;97216;-66
2021/12/03 16:05:23;;;;;;;;;18.20;15.20;;;;;8.02;30.51;98351.63;6162074;28;97445;-64
2021/12/03 16:08:28;;;;;;;;;15.60;14.60;;;;;8.00;30.40;98351.88;6153171;28;96338;-64
2021/12/03 16:11:39;;;;;;;;;15.50;15.00;;;;;7.99;30.55;98352.09;6160495;28;96759;-64
2021/12/03 16:14:55;;;;;;;;;18.00;16.40;;;;;7.73;30.65;98305.59;6162508;28;96788;-65
2021/12/03 16:52:24;;;;;;;;;22.00;19.20;;;;;7.53;30.63;98385.38;5957892;29;98457;-65
2021/12/03 16:55:56;;;;;;;;;21.00;19.20;;;;;7.47;30.70;98383.59;5976699;28;96850;-65
2021/12/03 16:59:00;;;;;;;;;22.40;19.80;;;;;7.48;30.73;98392.47;6064891;28;97282;-65
2021/12/03 17:02:07;;;;;;;;;23.00;20.00;;;;;7.50;30.86;98391.19;6102557;28;96515;-65
2021/12/03 17:12:14;;;;;;;;;25.00;23.00;;;;;7.42;30.83;98407.53;6075073;28;96828;-65
2021/12/03 17:46:21;;;;;;;;;33.00;28.00;;;;;6.62;32.71;98403.44;6061175;28;96860;-65
2021/12/03 17:49:32;;;;;;;;;32.20;29.00;;;;;6.67;32.78;98408.16;6125185;28;96665;-64
2021/12/03 17:56:08;;;;;;;;;40.00;33.00;;;;;6.65;32.76;98428.97;6132956;28;97073;-64
2021/12/03 17:59:17;;;;;;;;;36.40;31.40;;;;;6.66;32.47;98428.75;6142372;28;97001;-66
2021/12/03 18:02:30;;;;;;;;;38.25;32.25;;;;;6.57;32.69;98423.81;6122954;28;98005;-65
2021/12/03 18:09:04;;;;;;;;;32.00;30.00;;;;;6.56;32.64;98414.13;6124726;28;97122;-65
2021/12/03 18:52:46;;;;;;;;;34.40;31.00;;;;;6.62;32.22;98435.56;6095781;28;99973;-66
2021/12/03 18:55:52;;;;;;;;;32.40;29.00;;;;;6.63;31.93;98434.53;6123753;28;97068;-64
2021/12/03 18:58:59;;;;;;;;;31.00;28.00;;;;;6.58;31.95;98428.97;6115618;28;96747;-65
2021/12/03 19:02:06;;;;;;;;;32.60;27.60;;;;;6.65;31.93;98424.44;6119220;28;97573;-66
2021/12/03 19:05:15;;;;;;;;;33.60;29.40;;;;;6.65;31.90;98416.38;6139574;28;98130;-64
2021/12/03 19:13:20;;;;;;;;;32.60;28.60;;;;;6.47;32.07;98417.03;6120705;28;98242;-65
2021/12/03 19:16:25;;;;;;;;;37.60;30.00;;;;;6.35;32.04;98399.13;6138283;28;96530;-66
2021/12/03 19:19:30;;;;;;;;;32.50;30.00;;;;;6.48;32.51;98424.03;6122041;28;96736;-66
2021/12/03 19:22:34;;;;;;;;;37.00;30.00;;;;;6.49;32.28;98430.22;6126929;28;96831;-65
2021/12/03 19:25:37;;;;;;;;;34.00;27.00;;;;;6.39;32.46;98419.09;6138208;28;98532;-65
2021/12/03 19:28:41;;;;;;;;;27.40;25.00;;;;;6.44;32.35;98416.63;6138994;28;96980;-66
2021/12/03 19:31:50;;;;;;;;;27.00;24.40;;;;;6.40;31.98;98410.84;6132829;28;99138;-64
2021/12/03 19:34:53;;;;;;;;;28.00;25.00;;;;;6.44;32.15;98420.13;6132050;28;97608;-65
2021/12/03 19:38:01;;;;;;;;;25.00;23.00;;;;;6.28;32.04;98414.38;6141814;28;96714;-66
2021/12/03 19:41:12;;;;;;;;;29.00;24.00;;;;;6.26;31.97;98411.06;6127985;28;99435;-66
2021/12/03 19:44:18;;;;;;;;;27.20;23.80;;;;;6.27;31.63;98416.22;6125701;28;96650;-64
2021/12/03 19:47:30;;;;;;;;;25.20;23.00;;;;;6.29;31.71;98407.97;6133762;28;97410;-64
2021/12/03 19:50:40;;;;;;;;;26.20;23.20;;;;;6.14;31.42;98412.72;6138286;28;98130;-65
2021/12/03 19:53:49;;;;;;;;;22.25;20.00;;;;;6.26;31.53;98403.84;6111696;28;97201;-64
2021/12/03 19:56:52;;;;;;;;;23.60;22.00;;;;;6.26;31.13;98409.22;6131542;28;97424;-65
2021/12/03 19:59:56;;;;;;;;;25.60;22.00;;;;;6.23;30.96;98414.16;6133065;28;97517;-66
2021/12/03 20:03:01;;;;;;;;;25.00;22.00;;;;;6.21;30.86;98413.53;6124491;28;97402;-65
2021/12/03 20:06:05;;;;;;;;;22.20;19.20;;;;;6.13;30.85;98400.34;6133303;28;96723;-64
2021/12/03 20:09:12;;;;;;;;;24.60;23.20;;;;;6.08;30.88;98399.13;6117319;28;97455;-65
2021/12/03 20:12:18;;;;;;;;;27.00;20.00;;;;;6.24;30.72;98402.44;6124490;28;96863;-66
2021/12/03 20:15:26;;;;;;;;;23.50;21.00;;;;;6.16;30.53;98408.00;6137161;28;97669;-64
2021/12/03 20:18:35;;;;;;;;;25.00;19.80;;;;;6.25;30.54;98401.41;6115438;28;97823;-64
2021/12/03 20:21:44;;;;;;;;;22.25;19.25;;;;;6.19;30.30;98408.41;6128685;28;96915;-66
2021/12/03 20:25:13;;;;;;;;;21.00;18.75;;;;;6.26;30.26;98397.66;6104705;28;97060;-65
2021/12/03 20:28:22;;;;;;;;;23.40;21.00;;;;;6.30;30.01;98399.75;6135504;28;97190;-65
2021/12/03 20:31:28;;;;;;;;;22.00;18.00;;;;;6.30;29.95;98382.88;6124417;28;98255;-64
2021/12/03 20:34:46;;;;;;;;;20.00;16.00;;;;;6.21;29.88;98392.94;6110039;28;97487;-64
2021/12/03 20:37:50;;;;;;;;;19.25;18.00;;;;;6.30;29.85;98388.22;6112071;28;97679;-65
2021/12/03 20:40:55;;;;;;;;;21.60;18.00;;;;;6.28;29.96;98383.06;6114643;28;96840;-64
2021/12/03 20:44:08;;;;;;;;;20.50;19.00;;;;;6.25;29.76;98382.66;6123860;28;97580;-65
2021/12/03 20:47:30;;;;;;;;;22.60;20.00;;;;;6.23;29.86;98382.84;6148549;28;97991;-65
2021/12/03 20:50:43;;;;;;;;;19.50;19.00;;;;;6.24;30.08;98376.50;6153848;28;97404;-65
2021/12/03 20:53:50;;;;;;;;;22.40;21.00;;;;;6.28;29.86;98382.25;6119015;28;97360;-64
2021/12/03 21:10:28;;;;;;;;;18.40;16.40;;;;;6.28;29.37;98382.25;6136167;28;96916;-64
2021/12/03 21:13:38;;;;;;;;;21.00;18.00;;;;;6.23;29.36;98357.94;6129780;28;96597;-64
2021/12/03 21:17:03;;;;;;;;;15.60;14.00;;;;;6.33;29.38;98375.25;6142429;28;98580;-66
2021/12/03 21:20:12;;;;;;;;;21.00;18.00;;;;;6.44;29.36;98371.94;6142587;28;96952;-64
2021/12/03 21:23:19;;;;;;;;;20.20;18.00;;;;;6.50;29.23;98365.72;6146841;28;96872;-66
2021/12/03 21:26:24;;;;;;;;;21.40;19.20;;;;;6.47;29.12;98363.47;6166673;28;96490;-65
2021/12/03 21:29:39;;;;;;;;;20.00;19.00;;;;;6.45;29.03;98368.22;6164944;28;98384;-66
2021/12/03 21:32:51;;;;;;;;;25.00;22.00;;;;;6.37;28.54;98354.22;6160376;28;97507;-67
2021/12/03 21:39:22;;;;;;;;;22.00;18.80;;;;;6.63;28.86;98359.56;6143128;28;99708;-65
2021/12/03 21:42:25;;;;;;;;;21.40;18.00;;;;;6.53;28.80;98359.16;6127081;28;97944;-65
2021/12/03 21:45:28;;;;;;;;;22.00;18.60;;;;;6.60;28.94;98346.56;6117178;28;98809;-65
2021/12/03 21:48:32;;;;;;;;;23.25;20.00;;;;;6.59;28.91;98349.47;6119088;28;97628;-65
2021/12/03 21:51:37;;;;;;;;;23.00;21.00;;;;;6.58;29.01;98354.00;6110541;28;97328;-66